Time;durP1;ratioP1;P1;durP2;ratioP2;P2;SDS_P1;SDS_P2;PMS_P1;PMS_P2;Temp;Humidity;BMP_temperature;BMP_pressure;BME280_temperature;BME280_humidity;BME280_pressure;Samples;Min_cycle;Max_cycle;Signal;HPM_P1;HPM_P2
2023/10/28 00:00:54;;;;;;;48.92;18.13;;;9.60;99.90;;;;;;5075168;28;20105;-26
2023/10/28 00:03:20;;;;;;;58.17;18.75;;;9.50;99.90;;;;;;5074355;28;20044;-26
2023/10/28 00:05:47;;;;;;;54.92;19.40;;;9.60;99.90;;;;;;5074484;28;20045;-26
2023/10/28 00:08:12;;;;;;;46.58;18.55;;;9.50;99.90;;;;;;5056818;28;20090;-27
2023/10/28 00:10:40;;;;;;;50.47;17.38;;;9.60;99.90;;;;;;5074371;28;20044;-26
2023/10/28 00:13:07;;;;;;;46.63;18.27;;;9.40;99.90;;;;;;5072931;28;20099;-26
2023/10/28 00:15:33;;;;;;;44.05;17.73;;;9.60;99.90;;;;;;5074294;28;20051;-26
2023/10/28 00:17:59;;;;;;;52.95;18.35;;;9.60;99.90;;;;;;5074282;28;20052;-26
2023/10/28 00:20:29;;;;;;;47.47;18.73;;;9.50;99.90;;;;;;5074218;28;20489;-26
2023/10/28 00:22:55;;;;;;;45.20;18.00;;;9.40;99.90;;;;;;5073204;28;20467;-26
2023/10/28 00:25:28;;;;;;;46.15;17.90;;;9.50;99.90;;;;;;5073536;28;20489;-26
2023/10/28 00:27:55;;;;;;;53.90;19.77;;;9.70;99.90;;;;;;5073307;28;20129;-26
2023/10/28 00:30:22;;;;;;;49.88;19.02;;;9.50;99.90;;;;;;5072810;28;20049;-26
2023/10/28 00:32:49;;;;;;;52.53;19.88;;;9.70;99.90;;;;;;5073545;28;20098;-27
2023/10/28 00:35:15;;;;;;;54.47;20.25;;;9.40;99.90;;;;;;5073062;28;20048;-26
2023/10/28 00:37:42;;;;;;;64.15;21.40;;;9.40;99.90;;;;;;5074803;28;20045;-26
2023/10/28 00:40:08;;;;;;;55.00;20.58;;;9.70;99.90;;;;;;5072748;28;20048;-26
2023/10/28 00:42:35;;;;;;;48.72;20.73;;;9.50;99.90;;;;;;5073303;28;20048;-26
2023/10/28 00:45:05;;;;;;;58.00;21.60;;;9.70;99.90;;;;;;5073863;28;20052;-28
2023/10/28 00:47:35;;;;;;;54.22;21.33;;;9.70;99.90;;;;;;5073848;28;20045;-26
2023/10/28 00:50:06;;;;;;;60.22;22.45;;;9.50;99.90;;;;;;5072524;28;20040;-27
2023/10/28 00:52:32;;;;;;;56.42;21.83;;;9.50;99.90;;;;;;5072845;28;20487;-26
2023/10/28 00:54:58;;;;;;;56.33;22.33;;;9.60;99.90;;;;;;5073472;28;20102;-26
2023/10/28 00:57:26;;;;;;;60.53;23.85;;;9.70;99.90;;;;;;5074316;28;20041;-26
2023/10/28 00:59:53;;;;;;;71.53;24.77;;;9.50;99.90;;;;;;5073695;28;20059;-26
2023/10/28 01:02:19;;;;;;;66.05;24.42;;;9.50;99.90;;;;;;5073686;28;20052;-27
2023/10/28 01:04:45;;;;;;;61.65;23.85;;;9.60;99.90;;;;;;5055829;28;20518;-26
2023/10/28 01:07:11;;;;;;;69.80;26.38;;;9.60;99.90;;;;;;5073526;28;20053;-27
2023/10/28 01:09:46;;;;;;;72.18;26.13;;;9.70;99.90;;;;;;5073566;28;20040;-26
2023/10/28 01:12:13;;;;;;;69.75;25.23;;;9.80;99.90;;;;;;5074335;28;20056;-26
2023/10/28 01:14:43;;;;;;;75.10;26.70;;;9.80;99.90;;;;;;5073553;28;20044;-26
2023/10/28 01:17:09;;;;;;;79.85;27.85;;;9.80;99.90;;;;;;5072415;28;20056;-26
2023/10/28 01:19:35;;;;;;;76.40;28.10;;;9.70;99.90;;;;;;5074349;28;20063;-26
2023/10/28 01:22:01;;;;;;;83.28;29.77;;;9.60;99.90;;;;;;5073478;28;20087;-26
2023/10/28 01:24:32;;;;;;;87.10;30.67;;;9.80;99.90;;;;;;5072524;28;20055;-26
2023/10/28 01:27:02;;;;;;;91.82;31.17;;;9.80;99.90;;;;;;5074090;28;20063;-26
2023/10/28 01:29:28;;;;;;;87.78;29.45;;;9.70;99.90;;;;;;5073407;28;20064;-25
2023/10/28 01:31:55;;;;;;;90.70;31.00;;;9.80;99.90;;;;;;5073387;28;20127;-26
2023/10/28 01:34:22;;;;;;;87.20;32.03;;;9.60;99.90;;;;;;5073373;28;20421;-27
2023/10/28 01:36:49;;;;;;;72.10;30.15;;;9.60;99.90;;;;;;5073342;28;20088;-26
2023/10/28 01:39:18;;;;;;;95.20;34.25;;;9.60;99.90;;;;;;5072031;28;20048;-26
2023/10/28 01:41:44;;;;;;;90.63;33.20;;;9.80;99.90;;;;;;5072944;28;20048;-26
2023/10/28 01:44:11;;;;;;;85.25;34.22;;;9.80;99.90;;;;;;5075909;28;20433;-26
2023/10/28 01:46:37;;;;;;;87.35;35.47;;;9.70;99.90;;;;;;5077474;28;20044;-26
2023/10/28 01:49:04;;;;;;;90.78;35.05;;;9.60;99.90;;;;;;5077071;28;20048;-25
2023/10/28 01:51:30;;;;;;;93.30;36.13;;;9.70;99.90;;;;;;5077074;28;20083;-26
2023/10/28 01:53:55;;;;;;;84.03;36.42;;;9.60;99.90;;;;;;5077566;28;20091;-26
2023/10/28 01:56:21;;;;;;;91.88;36.53;;;9.50;99.90;;;;;;5076981;28;20079;-26
2023/10/28 01:58:47;;;;;;;88.40;37.40;;;9.70;99.90;;;;;;5075457;28;20044;-26
2023/10/28 02:01:13;;;;;;;100.18;36.88;;;9.60;99.90;;;;;;5077420;28;20048;-26
2023/10/28 02:03:38;;;;;;;77.82;35.63;;;9.50;99.90;;;;;;5077628;28;20051;-26
2023/10/28 02:06:06;;;;;;;96.30;37.08;;;9.50;99.90;;;;;;5076939;28;20044;-26
2023/10/28 02:08:31;;;;;;;87.97;36.92;;;9.50;99.90;;;;;;5077494;28;20114;-26
2023/10/28 02:10:57;;;;;;;91.35;37.47;;;9.50;99.90;;;;;;5076733;28;20425;-27
2023/10/28 02:13:23;;;;;;;80.35;34.78;;;9.30;99.90;;;;;;5075043;28;20586;-26
2023/10/28 02:15:49;;;;;;;89.97;37.28;;;9.40;99.90;;;;;;5076888;28;20077;-26
2023/10/28 02:18:18;;;;;;;95.60;37.47;;;9.30;99.90;;;;;;5076613;28;20047;-26
2023/10/28 02:20:45;;;;;;;86.47;36.45;;;9.30;99.90;;;;;;5075606;28;20048;-25
2023/10/28 02:23:13;;;;;;;98.50;38.05;;;9.40;99.90;;;;;;5077355;28;20048;-26
2023/10/28 02:25:41;;;;;;;90.07;37.35;;;9.20;99.90;;;;;;5076754;28;20052;-26
2023/10/28 02:28:11;;;;;;;86.28;36.67;;;9.30;99.90;;;;;;5076413;28;20044;-25
2023/10/28 02:30:40;;;;;;;106.47;39.25;;;9.20;99.90;;;;;;5076844;28;20083;-25
2023/10/28 02:33:07;;;;;;;90.60;36.63;;;9.30;99.90;;;;;;5076345;28;20110;-25
2023/10/28 02:35:33;;;;;;;92.32;36.53;;;9.20;99.90;;;;;;5075334;28;20463;-26
2023/10/28 02:37:59;;;;;;;86.07;34.55;;;9.10;99.90;;;;;;5076228;28;20044;-26
2023/10/28 02:40:25;;;;;;;90.97;36.60;;;9.00;99.90;;;;;;5076202;28;20040;-26
2023/10/28 02:42:51;;;;;;;92.68;36.92;;;8.90;99.90;;;;;;5058312;28;20494;-26
2023/10/28 02:45:17;;;;;;;90.47;36.10;;;8.90;99.90;;;;;;5074916;28;20051;-26
2023/10/28 02:47:42;;;;;;;92.53;35.75;;;9.00;99.90;;;;;;5076046;28;20044;-25
2023/10/28 02:50:09;;;;;;;88.50;35.90;;;8.90;99.90;;;;;;5074464;28;20051;-25
2023/10/28 02:52:35;;;;;;;92.93;36.10;;;8.90;99.90;;;;;;5075937;28;20048;-27
2023/10/28 02:55:01;;;;;;;92.72;36.67;;;9.00;99.90;;;;;;5075609;28;20102;-26
2023/10/28 02:57:27;;;;;;;94.70;36.15;;;8.70;99.90;;;;;;5075896;28;20131;-25
2023/10/28 02:59:53;;;;;;;105.15;37.05;;;8.70;99.90;;;;;;5075899;28;20112;-25
2023/10/28 03:02:18;;;;;;;100.88;38.40;;;8.90;99.90;;;;;;5075766;28;20044;-25
2023/10/28 03:04:44;;;;;;;103.90;37.58;;;8.90;99.90;;;;;;5075751;28;20048;-26
2023/10/28 03:07:10;;;;;;;100.80;36.40;;;8.90;99.90;;;;;;5074457;28;20044;-25
2023/10/28 03:09:35;;;;;;;96.30;36.25;;;8.80;99.90;;;;;;5075585;28;20048;-25
2023/10/28 03:12:02;;;;;;;107.88;37.13;;;9.00;99.90;;;;;;5075312;28;20384;-25
2023/10/28 03:14:28;;;;;;;86.35;34.85;;;8.80;99.90;;;;;;5075446;28;20060;-26
2023/10/28 03:16:54;;;;;;;81.95;34.17;;;9.00;99.90;;;;;;5075837;28;20048;-26
2023/10/28 03:19:20;;;;;;;88.47;34.00;;;8.90;99.90;;;;;;5075171;28;20524;-26
2023/10/28 03:21:46;;;;;;;85.70;33.58;;;8.90;99.90;;;;;;5076213;28;20040;-25
2023/10/28 03:24:12;;;;;;;95.18;34.38;;;8.80;99.90;;;;;;5075356;28;20475;-25
2023/10/28 03:26:38;;;;;;;91.03;32.53;;;8.80;99.90;;;;;;5074216;28;20132;-25
2023/10/28 03:29:05;;;;;;;89.40;32.97;;;8.80;99.90;;;;;;5075247;28;20045;-26
2023/10/28 03:31:31;;;;;;;84.40;32.65;;;8.60;99.90;;;;;;5075061;28;20355;-25
2023/10/28 03:33:56;;;;;;;87.10;34.90;;;8.60;99.90;;;;;;5075934;28;20047;-26
2023/10/28 03:36:22;;;;;;;99.50;33.40;;;8.60;99.90;;;;;;5075388;28;20436;-26
2023/10/28 03:38:48;;;;;;;89.70;33.83;;;8.70;99.90;;;;;;5074082;28;20052;-25
2023/10/28 03:41:13;;;;;;;82.80;33.65;;;8.50;99.90;;;;;;5075289;28;20044;-25
2023/10/28 03:43:41;;;;;;;97.10;33.92;;;8.60;99.90;;;;;;5057047;28;20402;-25
2023/10/28 03:46:07;;;;;;;99.28;33.13;;;8.60;99.90;;;;;;5074915;28;20041;-25
2023/10/28 03:48:33;;;;;;;102.35;34.15;;;8.60;99.90;;;;;;5073644;28;20067;-26
2023/10/28 03:51:03;;;;;;;97.82;34.28;;;8.50;99.90;;;;;;5074771;28;20055;-26
2023/10/28 03:53:30;;;;;;;91.30;32.55;;;8.50;99.90;;;;;;5074103;28;20094;-25
2023/10/28 03:55:56;;;;;;;105.82;34.95;;;8.50;99.90;;;;;;5074998;28;20059;-27
2023/10/28 03:58:22;;;;;;;95.35;34.17;;;8.50;99.90;;;;;;5075464;28;20383;-25
2023/10/28 04:00:54;;;;;;;96.85;34.05;;;8.50;99.90;;;;;;5074652;28;20388;-25
2023/10/28 04:03:21;;;;;;;93.75;33.83;;;8.50;99.90;;;;;;5073621;28;20040;-25
2023/10/28 04:05:48;;;;;;;100.85;34.22;;;8.30;99.90;;;;;;5074329;28;20119;-25
2023/10/28 04:08:14;;;;;;;94.60;33.67;;;8.40;99.90;;;;;;5074515;28;20055;-25
2023/10/28 04:10:39;;;;;;;90.15;33.25;;;8.30;99.90;;;;;;5074350;28;20041;-25
2023/10/28 04:13:05;;;;;;;95.15;33.85;;;8.50;99.90;;;;;;5072767;28;20056;-26
2023/10/28 04:15:31;;;;;;;83.20;32.40;;;8.30;99.90;;;;;;5074382;28;20048;-25
2023/10/28 04:17:57;;;;;;;100.18;33.95;;;8.30;99.90;;;;;;5074272;28;20513;-25
2023/10/28 04:20:23;;;;;;;79.43;31.33;;;8.30;99.90;;;;;;5074327;28;20036;-25
2023/10/28 04:22:49;;;;;;;90.47;33.08;;;8.40;99.90;;;;;;5074208;28;20052;-25
2023/10/28 04:25:15;;;;;;;85.97;31.95;;;8.40;99.90;;;;;;5074117;28;20051;-25
2023/10/28 04:27:41;;;;;;;78.13;31.23;;;8.40;99.90;;;;;;5074972;28;20137;-25
2023/10/28 04:30:10;;;;;;;85.45;31.23;;;8.40;99.90;;;;;;5074016;28;20041;-25
2023/10/28 04:32:38;;;;;;;74.82;30.40;;;8.40;99.90;;;;;;5074100;28;20127;-26
2023/10/28 04:35:04;;;;;;;80.60;30.42;;;8.20;99.90;;;;;;5074087;28;20048;-25
2023/10/28 04:37:30;;;;;;;77.82;31.75;;;8.40;99.90;;;;;;5074037;28;20048;-25
2023/10/28 04:39:55;;;;;;;78.63;31.30;;;8.30;99.90;;;;;;5073935;28;20044;-25
2023/10/28 04:42:21;;;;;;;66.85;29.90;;;8.50;99.90;;;;;;5073944;28;20050;-25
2023/10/28 04:44:47;;;;;;;70.50;32.13;;;8.30;99.90;;;;;;5073746;28;20102;-25
2023/10/28 04:47:13;;;;;;;72.85;30.27;;;8.50;99.90;;;;;;5073918;28;20399;-25
2023/10/28 04:49:41;;;;;;;83.70;32.50;;;8.50;99.90;;;;;;5056825;28;20048;-26
2023/10/28 04:52:08;;;;;;;75.03;32.30;;;8.70;99.90;;;;;;5073804;28;20078;-25
2023/10/28 04:54:34;;;;;;;62.13;27.70;;;8.60;99.90;;;;;;5073862;28;20054;-26
2023/10/28 04:57:00;;;;;;;83.65;33.08;;;8.60;99.90;;;;;;5074023;28;20051;-25
2023/10/28 04:59:29;;;;;;;78.80;32.30;;;8.70;99.90;;;;;;5073729;28;20432;-25
2023/10/28 05:01:56;;;;;;;85.85;32.85;;;8.80;99.90;;;;;;5073726;28;20091;-25
2023/10/28 05:04:24;;;;;;;69.75;30.02;;;8.60;99.90;;;;;;5072466;28;20075;-26
2023/10/28 05:06:51;;;;;;;81.50;33.22;;;8.80;99.90;;;;;;5074102;28;20052;-26
2023/10/28 05:09:20;;;;;;;79.20;31.20;;;8.70;99.90;;;;;;5073550;28;20101;-25
2023/10/28 05:11:50;;;;;;;89.70;34.83;;;8.90;99.90;;;;;;5072907;28;20489;-25
2023/10/28 05:14:16;;;;;;;79.13;32.53;;;8.70;99.90;;;;;;5074472;28;20048;-26
2023/10/28 05:16:42;;;;;;;85.07;33.92;;;8.70;99.90;;;;;;5073744;28;20605;-26
2023/10/28 05:19:08;;;;;;;95.90;34.55;;;8.90;99.90;;;;;;5079853;28;20044;-25
2023/10/28 05:21:34;;;;;;;96.95;36.53;;;9.00;99.90;;;;;;5080142;28;20505;-25
2023/10/28 05:24:00;;;;;;;79.90;33.13;;;9.00;99.90;;;;;;5080162;28;20043;-26
2023/10/28 05:26:26;;;;;;;92.18;34.25;;;9.00;99.90;;;;;;5078925;28;20045;-26
2023/10/28 05:28:54;;;;;;;85.88;35.20;;;8.90;99.90;;;;;;5080036;28;20119;-25
2023/10/28 05:31:23;;;;;;;94.65;34.40;;;9.00;99.90;;;;;;5080640;28;20048;-25
2023/10/28 05:33:49;;;;;;;85.47;35.05;;;9.10;99.90;;;;;;5078910;28;20059;-26
2023/10/28 05:36:15;;;;;;;78.80;33.05;;;9.00;99.90;;;;;;5062146;28;20479;-26
2023/10/28 05:38:42;;;;;;;91.95;35.38;;;9.10;99.90;;;;;;5079347;28;20080;-26
2023/10/28 05:41:09;;;;;;;93.60;36.20;;;9.10;99.90;;;;;;5079965;28;20565;-26
2023/10/28 05:43:35;;;;;;;83.40;34.85;;;9.10;99.90;;;;;;5079012;28;20088;-25
2023/10/28 05:46:02;;;;;;;84.53;35.35;;;9.10;99.90;;;;;;5079963;28;20433;-26
2023/10/28 05:48:28;;;;;;;81.00;34.20;;;9.10;99.90;;;;;;5078672;28;20380;-26
2023/10/28 05:50:55;;;;;;;76.63;33.15;;;9.00;99.90;;;;;;5079731;28;20422;-26
2023/10/28 05:53:22;;;;;;;76.93;33.42;;;9.10;99.90;;;;;;5080450;28;20075;-25
2023/10/28 05:55:48;;;;;;;72.93;33.38;;;9.10;99.90;;;;;;5080427;28;20087;-26
2023/10/28 05:58:14;;;;;;;89.20;34.92;;;9.00;99.90;;;;;;5079815;28;20099;-26
2023/10/28 06:00:41;;;;;;;81.85;33.80;;;9.10;99.90;;;;;;5079841;28;20055;-26
2023/10/28 06:03:08;;;;;;;70.13;31.08;;;9.20;99.90;;;;;;5079790;28;20052;-26
2023/10/28 06:05:34;;;;;;;73.28;32.03;;;9.10;99.90;;;;;;5079747;28;20436;-25
2023/10/28 06:08:00;;;;;;;70.10;33.25;;;9.20;99.90;;;;;;5080050;28;20041;-25
2023/10/28 06:10:26;;;;;;;84.72;34.33;;;9.30;99.90;;;;;;5078472;28;20482;-25
2023/10/28 06:12:52;;;;;;;70.47;30.23;;;9.30;99.90;;;;;;5079722;28;20064;-26
2023/10/28 06:15:18;;;;;;;84.28;33.53;;;9.20;99.90;;;;;;5079742;28;20056;-26
2023/10/28 06:17:45;;;;;;;78.90;32.45;;;9.20;99.90;;;;;;5079660;28;20098;-25
2023/10/28 06:20:11;;;;;;;82.40;32.70;;;9.30;99.90;;;;;;5078557;28;20044;-25
2023/10/28 06:22:37;;;;;;;81.82;32.05;;;9.20;99.90;;;;;;5079659;28;20437;-25
2023/10/28 06:25:04;;;;;;;77.50;30.83;;;9.30;99.90;;;;;;5079586;28;20045;-25
2023/10/28 06:27:33;;;;;;;74.90;30.80;;;9.40;99.90;;;;;;5078475;28;20102;-25
2023/10/28 06:30:00;;;;;;;79.80;32.30;;;9.30;99.90;;;;;;5075619;28;20561;-26
2023/10/28 06:32:29;;;;;;;70.63;31.70;;;9.30;99.90;;;;;;5076377;28;20053;-25
2023/10/28 06:34:55;;;;;;;65.68;29.23;;;9.40;99.90;;;;;;5077152;28;20044;-25
2023/10/28 06:37:21;;;;;;;56.95;27.60;;;9.40;99.90;;;;;;5075581;28;20090;-25
2023/10/28 06:39:47;;;;;;;68.38;29.15;;;9.30;99.90;;;;;;5075083;28;20451;-25
2023/10/28 06:42:13;;;;;;;59.22;29.33;;;9.40;99.90;;;;;;5076770;28;20053;-25
2023/10/28 06:44:39;;;;;;;62.40;28.80;;;9.50;99.90;;;;;;5076710;28;20051;-25
2023/10/28 06:47:06;;;;;;;61.35;27.85;;;9.50;99.90;;;;;;5076921;28;20041;-25
2023/10/28 06:49:31;;;;;;;62.83;27.27;;;9.40;99.90;;;;;;5076018;28;20052;-25
2023/10/28 06:51:57;;;;;;;66.88;28.40;;;9.60;99.90;;;;;;5075991;28;20044;-26
2023/10/28 06:54:24;;;;;;;58.83;28.15;;;9.60;99.90;;;;;;5075982;28;20045;-25
2023/10/28 06:56:51;;;;;;;48.55;24.65;;;9.50;99.90;;;;;;5075993;28;20044;-25
2023/10/28 06:59:17;;;;;;;61.42;26.35;;;9.60;99.90;;;;;;5075889;28;20041;-25
2023/10/28 07:01:43;;;;;;;57.05;25.50;;;9.50;99.90;;;;;;5076099;28;20044;-25
2023/10/28 07:04:10;;;;;;;47.42;23.00;;;9.70;99.90;;;;;;5074700;28;20131;-25
2023/10/28 07:06:37;;;;;;;40.30;22.23;;;9.70;99.90;;;;;;5058336;28;20057;-25
2023/10/28 07:09:03;;;;;;;38.30;21.05;;;9.60;99.90;;;;;;5075883;28;20538;-25
2023/10/28 07:11:29;;;;;;;44.05;22.55;;;9.70;99.90;;;;;;5075922;28;20094;-25
2023/10/28 07:13:55;;;;;;;35.75;19.80;;;9.70;99.90;;;;;;5075964;28;20083;-25
2023/10/28 07:16:21;;;;;;;30.98;18.27;;;9.70;99.90;;;;;;5075571;28;20123;-25
2023/10/28 07:18:48;;;;;;;31.40;17.25;;;9.80;99.90;;;;;;5076080;28;20123;-26
2023/10/28 07:21:14;;;;;;;32.90;18.60;;;9.70;99.90;;;;;;5074817;28;20128;-25
2023/10/28 07:23:40;;;;;;;25.92;16.45;;;9.80;99.90;;;;;;5075473;28;20048;-25
2023/10/28 07:26:06;;;;;;;27.60;16.27;;;9.80;99.90;;;;;;5074215;28;20044;-25
2023/10/28 07:28:36;;;;;;;27.50;15.25;;;9.80;99.90;;;;;;5075232;28;20098;-25
2023/10/28 07:31:02;;;;;;;23.67;15.30;;;9.80;99.90;;;;;;5075838;28;20497;-25
2023/10/28 07:33:28;;;;;;;28.13;15.45;;;9.80;99.90;;;;;;5074251;28;20045;-25
2023/10/28 07:35:54;;;;;;;25.60;12.75;;;9.90;99.90;;;;;;5075188;28;20494;-25
2023/10/28 07:38:20;;;;;;;23.70;13.05;;;9.90;99.90;;;;;;5075933;28;20105;-25
2023/10/28 07:40:47;;;;;;;20.38;13.10;;;10.00;99.90;;;;;;5075402;28;20051;-25
2023/10/28 07:43:15;;;;;;;19.30;12.25;;;10.10;99.90;;;;;;5074714;28;20475;-25
2023/10/28 07:45:41;;;;;;;22.20;11.55;;;10.00;99.90;;;;;;5075538;28;20433;-25
2023/10/28 07:48:08;;;;;;;18.70;11.48;;;10.10;99.90;;;;;;5073982;28;20044;-25
2023/10/28 07:50:35;;;;;;;21.25;11.15;;;10.20;99.90;;;;;;5075628;28;20094;-25
2023/10/28 07:53:01;;;;;;;22.15;15.77;;;10.20;99.90;;;;;;5075657;28;20080;-25
2023/10/28 07:55:27;;;;;;;15.13;10.98;;;10.30;99.90;;;;;;5074818;28;20048;-25
2023/10/28 07:57:54;;;;;;;16.50;9.05;;;10.40;99.90;;;;;;5074059;28;20081;-25
2023/10/28 08:00:20;;;;;;;15.27;9.30;;;10.40;99.90;;;;;;5073994;28;20060;-25
2023/10/28 08:02:46;;;;;;;14.88;8.65;;;10.40;99.90;;;;;;5074630;28;20055;-25
2023/10/28 08:05:15;;;;;;;16.15;9.13;;;10.40;99.90;;;;;;5074508;28;20106;-25
2023/10/28 08:07:42;;;;;;;14.75;7.97;;;10.40;99.90;;;;;;5074201;28;20482;-25
2023/10/28 08:10:10;;;;;;;13.75;7.47;;;10.40;99.90;;;;;;5074433;28;20052;-25
2023/10/28 08:12:36;;;;;;;12.70;7.32;;;10.50;99.90;;;;;;5073989;28;20113;-25
2023/10/28 08:15:03;;;;;;;15.07;7.30;;;10.50;99.90;;;;;;5073123;28;20128;-25
2023/10/28 08:17:31;;;;;;;12.68;8.13;;;10.50;99.90;;;;;;5075167;28;20394;-25
2023/10/28 08:19:57;;;;;;;8.52;6.75;;;10.60;99.90;;;;;;5074295;28;20479;-25
2023/10/28 08:22:24;;;;;;;11.20;7.50;;;10.70;99.90;;;;;;5073596;28;20048;-25
2023/10/28 08:24:50;;;;;;;9.02;6.35;;;10.80;99.90;;;;;;5074228;28;20071;-25
2023/10/28 08:27:16;;;;;;;12.95;6.35;;;10.90;99.90;;;;;;5073194;28;20051;-25
2023/10/28 08:29:45;;;;;;;12.88;5.65;;;11.00;99.90;;;;;;5074015;28;20036;-25
2023/10/28 08:32:10;;;;;;;9.30;6.05;;;11.00;99.90;;;;;;5074981;28;20051;-25
2023/10/28 08:34:38;;;;;;;9.90;6.32;;;11.10;99.90;;;;;;5074060;28;20044;-25
2023/10/28 08:37:04;;;;;;;11.43;5.60;;;11.10;99.90;;;;;;5073054;28;20056;-25
2023/10/28 08:39:31;;;;;;;10.52;5.60;;;11.10;99.90;;;;;;5074079;28;20041;-25
2023/10/28 08:42:04;;;;;;;9.65;5.20;;;11.10;99.90;;;;;;5074007;28;20048;-26
2023/10/28 08:44:34;;;;;;;14.40;6.10;;;11.10;99.90;;;;;;5074833;28;20040;-25
2023/10/28 08:47:06;;;;;;;14.48;6.25;;;11.00;99.90;;;;;;5073426;28;20139;-25
2023/10/28 08:49:36;;;;;;;8.93;5.53;;;11.00;99.90;;;;;;5074413;28;20423;-25
2023/10/28 08:52:04;;;;;;;8.57;5.55;;;11.00;99.90;;;;;;5073002;28;20505;-25
2023/10/28 08:54:32;;;;;;;10.68;6.65;;;11.00;99.90;;;;;;5056130;28;20048;-25
2023/10/28 08:57:00;;;;;;;13.07;6.30;;;11.00;99.90;;;;;;5074587;28;20131;-25
2023/10/28 08:59:29;;;;;;;10.48;5.95;;;11.10;99.90;;;;;;5072567;28;20036;-25
2023/10/28 09:01:57;;;;;;;9.40;5.80;;;11.10;99.90;;;;;;5073686;28;20052;-25
2023/10/28 09:04:23;;;;;;;8.55;5.32;;;11.00;99.90;;;;;;5073768;28;20475;-25
2023/10/28 09:06:52;;;;;;;8.65;5.43;;;11.00;99.90;;;;;;5073599;28;20052;-25
2023/10/28 09:09:18;;;;;;;11.00;5.95;;;10.90;99.90;;;;;;5073866;28;20410;-25
2023/10/28 09:11:45;;;;;;;9.68;5.35;;;10.80;99.90;;;;;;5056531;28;20055;-25
2023/10/28 09:14:11;;;;;;;11.60;5.93;;;10.70;99.90;;;;;;5074424;28;20391;-25
2023/10/28 09:16:37;;;;;;;11.02;6.18;;;10.70;99.90;;;;;;5072340;28;20052;-25
2023/10/28 09:19:04;;;;;;;11.20;6.22;;;10.70;99.90;;;;;;5073595;28;20083;-25
2023/10/28 09:21:31;;;;;;;9.88;5.93;;;10.70;99.90;;;;;;5073584;28;20090;-25
2023/10/28 09:24:00;;;;;;;9.95;6.13;;;10.70;99.90;;;;;;5073518;28;20049;-25
2023/10/28 09:26:28;;;;;;;9.65;6.00;;;10.80;99.90;;;;;;5072883;28;20123;-25
2023/10/28 09:28:53;;;;;;;8.60;6.10;;;10.80;99.90;;;;;;5073902;28;20109;-25
2023/10/28 09:31:25;;;;;;;15.50;6.72;;;10.90;99.90;;;;;;5073660;28;20056;-26
2023/10/28 09:33:52;;;;;;;9.20;5.90;;;11.00;99.90;;;;;;5073487;28;20044;-25
2023/10/28 09:36:18;;;;;;;10.38;6.70;;;11.00;99.90;;;;;;5074243;28;20041;-25
2023/10/28 09:38:45;;;;;;;14.18;6.00;;;11.00;99.90;;;;;;5055775;28;20376;-25
2023/10/28 09:41:12;;;;;;;10.80;6.13;;;11.00;99.90;;;;;;5073324;28;20106;-25
2023/10/28 09:43:38;;;;;;;11.13;6.30;;;11.00;99.90;;;;;;5073326;28;20048;-25
2023/10/28 09:46:05;;;;;;;11.25;5.97;;;11.00;99.90;;;;;;5073306;28;20047;-25
2023/10/28 09:48:36;;;;;;;7.85;6.10;;;10.90;99.90;;;;;;5073293;28;20125;-26
2023/10/28 09:51:02;;;;;;;8.88;6.25;;;10.90;99.90;;;;;;5073269;28;20056;-25
2023/10/28 09:53:35;;;;;;;7.93;5.78;;;11.00;99.90;;;;;;5072263;28;20474;-25
2023/10/28 09:56:02;;;;;;;;;;;11.00;99.90;;;;;;5074743;28;20059;-25
2023/10/28 09:58:33;;;;;;;7.25;5.25;;;11.00;99.90;;;;;;5073175;28;19963;-25
2023/10/28 10:01:21;;;;;;;10.23;5.55;;;11.10;99.90;;;;;;5073411;28;20106;-27
2023/10/28 10:04:22;;;;;;;11.02;5.10;;;11.10;99.90;;;;;;5075034;28;20056;-26
2023/10/28 10:06:48;;;;;;;10.20;4.72;;;11.10;99.90;;;;;;5034514;28;20432;-25
2023/10/28 10:09:18;;;;;;;9.63;5.05;;;11.10;99.90;;;;;;5068185;28;20135;-25
2023/10/28 10:11:45;;;;;;;12.27;4.35;;;11.00;99.90;;;;;;5076494;28;20131;-25
2023/10/28 10:14:12;;;;;;;9.18;4.93;;;11.00;99.90;;;;;;5077010;28;20123;-27
2023/10/28 10:17:10;;;;;;;12.02;5.05;;;11.00;99.90;;;;;;5075796;28;20051;-25
2023/10/28 10:19:36;;;;;;;9.50;4.43;;;11.00;99.90;;;;;;5076914;28;20482;-26
2023/10/28 10:22:03;;;;;;;6.32;4.90;;;11.00;99.90;;;;;;5076842;28;20072;-26
2023/10/28 10:24:29;;;;;;;9.13;5.15;;;11.00;99.90;;;;;;5076542;28;20056;-25
2023/10/28 10:26:59;;;;;;;10.93;5.05;;;10.90;99.90;;;;;;5076448;28;20056;-26
2023/10/28 10:29:29;;;;;;;9.77;6.00;;;10.90;99.90;;;;;;5076437;28;20523;-26
2023/10/28 10:31:57;;;;;;;10.93;5.47;;;10.90;99.90;;;;;;5076467;28;20049;-25
2023/10/28 10:34:45;;;;;;;8.18;5.10;;;10.90;99.90;;;;;;5076377;28;20051;-26
2023/10/28 10:37:24;;;;;;;12.68;5.22;;;10.90;99.90;;;;;;5076956;28;20048;-25
2023/10/28 10:39:49;;;;;;;10.73;5.15;;;10.90;99.90;;;;;;5076289;28;20123;-26
2023/10/28 10:42:16;;;;;;;10.23;4.75;;;11.00;99.90;;;;;;5076208;28;20132;-25
2023/10/28 10:44:41;;;;;;;9.57;5.18;;;11.00;99.90;;;;;;5076279;28;20049;-25
2023/10/28 10:47:12;;;;;;;11.10;4.57;;;11.00;99.90;;;;;;5076387;28;20041;-25
2023/10/28 10:49:39;;;;;;;9.73;4.57;;;11.00;99.90;;;;;;5076327;28;20051;-25
2023/10/28 10:52:05;;;;;;;10.07;4.85;;;11.00;99.90;;;;;;5074494;28;20049;-25
2023/10/28 10:54:36;;;;;;;11.35;4.75;;;11.00;99.90;;;;;;5076840;28;20052;-25
2023/10/28 10:57:03;;;;;;;8.77;4.78;;;11.00;99.90;;;;;;5075989;28;20045;-25
2023/10/28 10:59:31;;;;;;;12.75;5.30;;;11.00;99.90;;;;;;5075917;28;20044;-25
2023/10/28 11:01:57;;;;;;;9.77;5.50;;;11.00;99.90;;;;;;5076707;28;20123;-25
2023/10/28 11:04:28;;;;;;;9.00;5.18;;;11.00;99.90;;;;;;5075203;28;20387;-25
2023/10/28 11:06:54;;;;;;;11.40;4.78;;;11.10;99.90;;;;;;5075699;28;20123;-25
2023/10/28 11:09:20;;;;;;;10.70;5.60;;;11.10;99.90;;;;;;5075614;28;20136;-25
2023/10/28 11:11:46;;;;;;;9.50;5.10;;;11.20;99.90;;;;;;5074792;28;20053;-25
2023/10/28 11:14:14;;;;;;;11.50;5.03;;;11.10;99.90;;;;;;5075487;28;20362;-26
2023/10/28 11:16:41;;;;;;;8.85;5.20;;;11.20;99.90;;;;;;5073706;28;20538;-25
2023/10/28 11:19:09;;;;;;;9.80;4.60;;;11.30;99.90;;;;;;5075411;28;20052;-25
2023/10/28 11:21:36;;;;;;;13.70;4.82;;;11.40;99.90;;;;;;5075550;28;20123;-25
2023/10/28 11:24:04;;;;;;;10.05;4.65;;;11.50;99.90;;;;;;5075463;28;20048;-25
2023/10/28 11:26:30;;;;;;;9.02;4.00;;;11.60;99.90;;;;;;5075945;28;20051;-26
2023/10/28 11:28:59;;;;;;;8.38;4.60;;;11.70;99.90;;;;;;5075253;28;20394;-26
2023/10/28 11:31:31;;;;;;;10.75;4.32;;;11.80;99.90;;;;;;5075280;28;20040;-26
2023/10/28 11:33:58;;;;;;;10.32;3.75;;;12.00;99.90;;;;;;5057911;28;20048;-25
2023/10/28 11:36:24;;;;;;;8.73;3.85;;;12.20;99.90;;;;;;5075232;28;20406;-26
2023/10/28 11:38:50;;;;;;;13.73;3.83;;;12.30;99.90;;;;;;5075215;28;20052;-26
2023/10/28 11:41:16;;;;;;;9.70;3.58;;;12.30;99.90;;;;;;5074480;28;20055;-26
2023/10/28 11:43:42;;;;;;;8.55;3.50;;;12.30;99.90;;;;;;5073866;28;20048;-26
2023/10/28 11:46:08;;;;;;;6.35;3.00;;;12.20;99.90;;;;;;5074074;28;20496;-26
2023/10/28 11:48:34;;;;;;;11.25;3.13;;;12.20;99.90;;;;;;5074948;28;20071;-26
2023/10/28 11:51:01;;;;;;;9.52;3.60;;;12.10;99.90;;;;;;5073595;28;20040;-26
2023/10/28 11:53:28;;;;;;;8.93;3.10;;;12.00;99.90;;;;;;5074896;28;20051;-25
2023/10/28 11:55:54;;;;;;;6.80;3.15;;;12.00;99.90;;;;;;5075682;28;20049;-26
2023/10/28 11:58:24;;;;;;;5.72;2.97;;;11.90;99.90;;;;;;5074763;28;20051;-26
2023/10/28 12:00:53;;;;;;;5.30;2.92;;;11.80;99.90;;;;;;5074709;28;20049;-26
2023/10/28 12:03:19;;;;;;;6.82;3.20;;;11.70;99.90;;;;;;5073545;28;20410;-25
2023/10/28 12:05:45;;;;;;;8.52;3.30;;;11.70;99.90;;;;;;5074531;28;20045;-26
2023/10/28 12:08:12;;;;;;;8.65;3.30;;;11.70;99.90;;;;;;5075143;28;20048;-25
2023/10/28 12:10:43;;;;;;;10.43;3.40;;;11.60;99.90;;;;;;5072980;28;20036;-25
2023/10/28 12:13:18;;;;;;;7.03;3.67;;;11.70;99.90;;;;;;5074201;28;20122;-26
2023/10/28 12:15:44;;;;;;;8.98;3.47;;;11.70;99.90;;;;;;5074776;28;20083;-25
2023/10/28 12:18:10;;;;;;;10.68;3.65;;;11.70;99.90;;;;;;5074065;28;20404;-26
2023/10/28 12:20:37;;;;;;;11.75;3.28;;;11.80;99.90;;;;;;5073101;28;20048;-26
2023/10/28 12:23:04;;;;;;;11.52;5.80;;;11.90;99.90;;;;;;5074268;28;20101;-25
2023/10/28 12:25:30;;;;;;;15.32;5.93;;;12.10;99.90;;;;;;5074805;28;20048;-26
2023/10/28 12:27:56;;;;;;;10.68;5.05;;;12.30;99.90;;;;;;5074892;28;20119;-26
2023/10/28 12:30:22;;;;;;;10.27;4.50;;;12.30;99.90;;;;;;5074891;28;20447;-26
2023/10/28 12:32:49;;;;;;;10.93;5.10;;;12.40;99.90;;;;;;5074059;28;20075;-25
2023/10/28 12:35:14;;;;;;;11.43;3.95;;;12.40;99.90;;;;;;5074085;28;20060;-25
2023/10/28 12:37:40;;;;;;;7.75;2.95;;;12.30;99.90;;;;;;5074029;28;20045;-25